TAF SBCF
SBCF 280400Z 2806/2906 35005KT 8000 BKN010 TN18/2809Z TX27/2817Z PROB30 2806/2811 00000KT 4000 RA BR BKN005 BECMG 2812/2814 28010KT NSC PROB30 2818/2820 6000 TSRA BKN030 FEW045CB BECMG 2820/2822 00000KT RMK PGE=
METAR SBCF
SBCF 280900Z 33006KT 8000 BKN005 SCT020 18/17 Q1013=
SBCF 280800Z 34006KT 9999 BKN011 18/17 Q1012=
SBCF 280700Z 36003KT 9999 BKN015 18/17 Q1012=
COR SBCF 280600Z 07005KT 9999 BKN010 19/17 Q1013=
SBCF 280500Z 36005KT 9999 BKN009 19/17 Q1012=
WC SBCF
WS SBCF
WV SBCF